createdAt,value
2022-09-16T00:00:59.169Z,7
2022-09-16T00:03:31.331Z,8
2022-09-16T00:06:06.627Z,8
2022-09-16T00:08:39.581Z,4
2022-09-16T00:11:14.468Z,5
2022-09-16T00:13:59.123Z,8
2022-09-16T00:16:31.549Z,7
2022-09-16T00:19:04.388Z,8
2022-09-16T00:21:38.249Z,4
2022-09-16T00:24:10.623Z,4
2022-09-16T00:26:43.146Z,5
2022-09-16T00:29:15.148Z,5
2022-09-16T00:31:47.784Z,4
2022-09-16T00:34:20.128Z,4
2022-09-16T00:36:56.385Z,4
2022-09-16T00:39:29.543Z,4
2022-09-16T00:42:01.888Z,8
2022-09-16T00:44:34.790Z,4
2022-09-16T00:47:09.178Z,8
2022-09-16T00:49:41.226Z,4
2022-09-16T00:52:13.639Z,4
2022-09-16T00:54:45.566Z,8
2022-09-16T00:57:19.421Z,4
2022-09-16T00:59:52.977Z,8
2022-09-16T01:02:25.482Z,8
2022-09-16T01:04:57.657Z,5
2022-09-16T01:07:31.031Z,4
2022-09-16T01:10:05.266Z,4
2022-09-16T01:12:37.112Z,9
2022-09-16T01:15:11.634Z,5
2022-09-16T01:17:45.152Z,5
2022-09-16T01:20:17.607Z,9
2022-09-16T01:22:52.486Z,5
2022-09-16T01:25:24.871Z,7
2022-09-16T01:27:57.340Z,5
2022-09-16T01:30:29.709Z,7
2022-09-16T01:33:02.173Z,4
2022-09-16T01:35:34.587Z,4
2022-09-16T01:38:06.979Z,4
2022-09-16T01:40:39.963Z,8
2022-09-16T01:43:12.988Z,8
2022-09-16T01:45:44.562Z,4
2022-09-16T01:48:17.019Z,7
2022-09-16T01:50:49.218Z,8
2022-09-16T01:53:22.022Z,7
2022-09-16T01:55:54.509Z,7
2022-09-16T01:58:27.372Z,4
2022-09-16T02:00:59.691Z,4
2022-09-16T02:03:32.048Z,4
2022-09-16T02:06:04.943Z,4
2022-09-16T02:08:37.144Z,8
2022-09-16T02:11:13.365Z,6
2022-09-16T02:13:47.317Z,5
2022-09-16T02:16:21.413Z,4
2022-09-16T02:18:53.569Z,4
2022-09-16T02:21:25.676Z,4
2022-09-16T02:24:03.561Z,7
2022-09-16T02:26:35.457Z,4
2022-09-16T02:29:07.663Z,4
2022-09-16T02:31:43.105Z,4
2022-09-16T02:34:14.047Z,8
2022-09-16T02:36:49.564Z,7
2022-09-16T02:39:20.709Z,5
2022-09-16T02:41:53.427Z,8
2022-09-16T02:44:26.179Z,7
2022-09-16T02:47:03.979Z,4
2022-09-16T02:49:36.795Z,7
2022-09-16T02:52:12.185Z,4
2022-09-16T02:54:43.678Z,7
2022-09-16T02:57:17.624Z,8
2022-09-16T02:59:53.502Z,5
2022-09-16T03:02:27.907Z,4
2022-09-16T03:04:59.756Z,9
2022-09-16T03:07:35.708Z,5
2022-09-16T03:10:08.303Z,2
2022-09-16T03:12:40.858Z,4
2022-09-16T03:15:13.418Z,7
2022-09-16T03:17:46.175Z,8
2022-09-16T03:20:20.653Z,12
2022-09-16T03:22:51.821Z,5
2022-09-16T03:25:24.837Z,6
2022-09-16T03:27:57.474Z,7
2022-09-16T03:30:33.081Z,7
2022-09-16T03:33:04.220Z,5
2022-09-16T03:35:38.935Z,4
2022-09-16T03:38:10.988Z,4
2022-09-16T03:40:43.122Z,5
2022-09-16T03:43:17.131Z,11
2022-09-16T03:45:49.447Z,7
2022-09-16T03:48:24.951Z,12
2022-09-16T03:50:56.186Z,5
2022-09-16T03:53:29.481Z,12
2022-09-16T03:56:01.819Z,8
2022-09-16T03:58:34.271Z,8
2022-09-16T04:01:07.542Z,8
2022-09-16T04:03:39.730Z,8
2022-09-16T04:06:16.806Z,8
2022-09-16T04:08:49.137Z,8
2022-09-16T04:11:21.753Z,7
2022-09-16T04:13:55.643Z,5
2022-09-16T04:16:30.021Z,8
2022-09-16T04:19:03.210Z,5
2022-09-16T04:21:36.471Z,9
2022-09-16T04:24:13.936Z,5
2022-09-16T04:26:44.610Z,9
2022-09-16T04:29:18.809Z,11
2022-09-16T04:31:51.344Z,8
2022-09-16T04:34:24.503Z,4
2022-09-16T04:36:58.230Z,8
2022-09-16T04:39:31.193Z,11
2022-09-16T04:42:03.570Z,8
2022-09-16T04:44:36.597Z,12
2022-09-16T04:47:09.042Z,11
2022-09-16T04:49:41.849Z,13
2022-09-16T04:52:14.566Z,8
2022-09-16T04:54:47.206Z,8
2022-09-16T04:57:19.475Z,8
2022-09-16T04:59:52.313Z,15
2022-09-16T05:02:24.966Z,8
2022-09-16T05:05:00.693Z,5
2022-09-16T05:07:33.373Z,6
2022-09-16T05:10:06.193Z,16
2022-09-16T05:12:40.720Z,8
2022-09-16T05:15:14.625Z,8
2022-09-16T05:17:52.346Z,9
2022-09-16T05:20:28.139Z,9
2022-09-16T05:23:02.275Z,11
2022-09-16T05:25:33.803Z,13
2022-09-16T05:28:06.579Z,17
2022-09-16T05:30:39.653Z,24
2022-09-16T05:33:16.557Z,12
2022-09-16T05:35:47.883Z,14
2022-09-16T05:38:20.830Z,12
2022-09-16T05:40:54.445Z,13
2022-09-16T05:43:27.393Z,16
2022-09-16T05:46:00.412Z,25
2022-09-16T05:48:32.851Z,24
2022-09-16T05:51:07.445Z,14
2022-09-16T05:53:40.481Z,11
2022-09-16T05:56:11.865Z,12
2022-09-16T05:58:46.718Z,16
2022-09-16T06:01:21.331Z,12
2022-09-16T06:03:54.435Z,12
2022-09-16T06:06:30.628Z,11
2022-09-16T06:09:02.176Z,8
2022-09-16T06:11:34.627Z,18
2022-09-16T06:14:06.833Z,12
2022-09-16T06:16:40.260Z,13
2022-09-16T06:19:13.417Z,16
2022-09-16T06:21:45.643Z,16
2022-09-16T06:24:18.688Z,8
2022-09-16T06:26:52.511Z,9
2022-09-16T06:29:24.884Z,11
2022-09-16T06:31:57.562Z,9
2022-09-16T06:34:30.438Z,11
2022-09-16T06:37:02.756Z,8
2022-09-16T06:39:40.371Z,12
2022-09-16T06:42:12.603Z,11
2022-09-16T06:44:46.293Z,12
2022-09-16T06:47:18.910Z,16
2022-09-16T06:49:50.888Z,8
2022-09-16T06:52:22.888Z,16
2022-09-16T06:54:55.246Z,12
2022-09-16T06:57:27.690Z,15
2022-09-16T07:00:00.581Z,12
2022-09-16T07:02:33.464Z,12
2022-09-16T07:05:05.319Z,45
2022-09-16T07:07:38.514Z,28
2022-09-16T07:10:11.566Z,51
2022-09-16T07:12:43.911Z,56
2022-09-16T07:15:19.425Z,16
2022-09-16T07:17:50.979Z,20
2022-09-16T07:20:23.417Z,17
2022-09-16T07:22:56.245Z,23
2022-09-16T07:25:36.416Z,11
2022-09-16T07:28:07.898Z,19
2022-09-16T07:30:42.350Z,12
2022-09-16T07:33:18.154Z,12
2022-09-16T07:35:49.167Z,12
2022-09-16T07:38:21.203Z,11
2022-09-16T07:40:53.718Z,12
2022-09-16T07:43:25.541Z,8
2022-09-16T07:45:57.820Z,12
2022-09-16T07:48:35.688Z,5
2022-09-16T07:51:06.990Z,8
2022-09-16T07:53:39.308Z,8
2022-09-16T07:56:13.785Z,11
2022-09-16T07:58:46.509Z,8
2022-09-16T08:01:21.994Z,5
2022-09-16T08:03:53.598Z,16
2022-09-16T08:06:27.480Z,12
2022-09-16T08:09:38.898Z,11
2022-09-16T08:12:24.026Z,11
2022-09-16T08:14:56.538Z,8
2022-09-16T08:17:34.351Z,12
2022-09-16T08:20:05.098Z,9
2022-09-16T08:22:38.250Z,10
2022-09-16T08:25:10.518Z,10
2022-09-16T08:27:45.005Z,12
2022-09-16T08:30:16.983Z,13
2022-09-16T08:32:48.774Z,7
2022-09-16T08:35:21.339Z,8
2022-09-16T08:37:53.545Z,13
2022-09-16T08:40:27.254Z,12
2022-09-16T08:43:00.042Z,8
2022-09-16T08:45:32.852Z,7
2022-09-16T08:48:05.574Z,5
2022-09-16T08:50:38.449Z,7
2022-09-16T08:53:10.899Z,7
2022-09-16T08:55:43.305Z,8
2022-09-16T08:58:17.404Z,6
2022-09-16T09:00:50.190Z,5
2022-09-16T09:03:23.142Z,11
2022-09-16T09:05:57.380Z,8
2022-09-16T09:08:30.143Z,7
2022-09-16T09:11:02.730Z,5
2022-09-16T09:13:37.434Z,7
2022-09-16T09:16:10.309Z,7
2022-09-16T09:18:42.805Z,8
2022-09-16T09:21:15.538Z,7
2022-09-16T09:23:48.053Z,7
2022-09-16T09:26:23.337Z,8
2022-09-16T09:28:56.087Z,7
2022-09-16T09:31:30.937Z,10
2022-09-16T09:34:05.399Z,9
2022-09-16T09:36:37.970Z,7
2022-09-16T09:39:10.100Z,7
2022-09-16T09:41:42.933Z,5
2022-09-16T09:44:17.399Z,7
2022-09-16T09:46:50.275Z,8
2022-09-16T09:49:22.760Z,11
2022-09-16T09:51:57.286Z,5
2022-09-16T09:54:30.485Z,7
2022-09-16T09:57:06.026Z,11
2022-09-16T09:59:38.643Z,7
2022-09-16T10:02:15.811Z,4
2022-09-16T10:04:48.182Z,5
2022-09-16T10:07:19.990Z,8
2022-09-16T10:09:52.545Z,4
2022-09-16T10:12:25.002Z,6
2022-09-16T10:14:57.882Z,11
2022-09-16T10:17:32.801Z,13
2022-09-16T10:20:04.537Z,13
2022-09-16T10:22:37.768Z,6
2022-09-16T10:25:12.900Z,19
2022-09-16T10:27:43.864Z,9
2022-09-16T10:30:17.865Z,12
2022-09-16T10:32:56.868Z,5
2022-09-16T10:35:29.451Z,9
2022-09-16T10:38:01.952Z,8
2022-09-16T10:40:34.947Z,8
2022-09-16T10:43:07.589Z,7
2022-09-16T10:45:43.423Z,12
2022-09-16T10:48:15.084Z,5
2022-09-16T10:50:47.338Z,9
2022-09-16T10:53:20.123Z,8
2022-09-16T10:55:52.672Z,5
2022-09-16T10:58:27.069Z,5
2022-09-16T11:01:00.412Z,8
2022-09-16T11:03:34.218Z,7
2022-09-16T11:06:07.401Z,4
2022-09-16T11:08:39.595Z,12
2022-09-16T11:11:13.794Z,4
2022-09-16T11:13:50.653Z,12
2022-09-16T11:16:24.253Z,4
2022-09-16T11:18:56.972Z,7
2022-09-16T11:21:29.753Z,4
2022-09-16T11:24:02.607Z,4
2022-09-16T11:26:35.667Z,7
2022-09-16T11:29:07.437Z,4
2022-09-16T11:31:40.078Z,9
2022-09-16T11:34:14.043Z,8
2022-09-16T11:36:49.999Z,7
2022-09-16T11:39:25.020Z,8
2022-09-16T11:41:57.132Z,8
2022-09-16T11:44:29.472Z,8
2022-09-16T11:47:01.616Z,12
2022-09-16T11:49:33.354Z,12
2022-09-16T11:52:05.458Z,12
2022-09-16T11:54:37.993Z,12
2022-09-16T11:57:15.498Z,11
2022-09-16T11:59:46.744Z,9
2022-09-16T12:02:20.014Z,19
2022-09-16T12:04:53.742Z,12
2022-09-16T12:07:27.382Z,9
2022-09-16T12:09:59.881Z,12
2022-09-16T12:12:33.440Z,8
2022-09-16T12:15:06.438Z,15
2022-09-16T12:17:39.598Z,13
2022-09-16T12:20:12.071Z,15
2022-09-16T12:22:45.886Z,14
2022-09-16T12:25:18.570Z,15
2022-09-16T12:27:50.963Z,20
2022-09-16T12:30:24.256Z,17
2022-09-16T12:32:57.488Z,16
2022-09-16T12:38:04.304Z,23
2022-09-16T12:40:38.189Z,26
2022-09-16T12:43:10.645Z,19
2022-09-16T12:45:43.033Z,17
2022-09-16T12:48:15.860Z,21
2022-09-16T12:50:48.419Z,15
2022-09-16T12:53:20.881Z,15
2022-09-16T12:55:54.031Z,14
2022-09-16T12:58:28.328Z,14
2022-09-16T13:01:01.774Z,13
2022-09-16T13:06:09.225Z,13
2022-09-16T13:08:40.268Z,16
2022-09-16T13:12:42.995Z,16
2022-09-16T13:15:14.778Z,16
2022-09-16T13:17:47.524Z,16
2022-09-16T13:20:20.292Z,20
2022-09-16T13:22:54.538Z,16
2022-09-16T13:25:26.680Z,15
2022-09-16T13:27:59.118Z,15
2022-09-16T13:30:32.902Z,19
2022-09-16T13:33:06.318Z,17
2022-09-16T13:35:39.238Z,17
2022-09-16T13:38:12.833Z,19
2022-09-16T13:40:46.941Z,20
2022-09-16T13:43:19.823Z,12
2022-09-16T13:45:52.452Z,19
2022-09-16T13:48:25.056Z,13
2022-09-16T13:50:57.802Z,16
2022-09-16T13:53:30.616Z,16
2022-09-16T13:56:03.175Z,17
2022-09-16T13:58:35.821Z,16
2022-09-16T14:01:10.420Z,17
2022-09-16T14:03:45.076Z,16
2022-09-16T14:06:21.071Z,15
2022-09-16T14:08:52.911Z,27
2022-09-16T14:11:25.443Z,24
2022-09-16T14:14:12.566Z,16
2022-09-16T14:17:18.031Z,19
2022-09-16T14:19:49.358Z,13
2022-09-16T14:22:22.841Z,18
2022-09-16T14:25:29.836Z,24
2022-09-16T14:28:00.529Z,16
2022-09-16T14:30:32.664Z,13
2022-09-16T14:33:06.399Z,16
2022-09-16T14:35:39.503Z,12
2022-09-16T14:39:07.155Z,16
2022-09-16T14:41:38.499Z,9
2022-09-16T14:44:10.785Z,19
2022-09-16T14:46:42.775Z,15
2022-09-16T14:49:17.638Z,16
2022-09-16T14:51:48.924Z,12
2022-09-16T14:54:21.827Z,13
2022-09-16T14:56:54.040Z,17
2022-09-16T14:59:26.806Z,24
2022-09-16T15:01:59.328Z,16
2022-09-16T15:04:31.840Z,13
2022-09-16T15:07:04.698Z,13
2022-09-16T15:09:52.244Z,12
2022-09-16T15:12:25.313Z,16
2022-09-16T15:14:57.851Z,17
2022-09-16T15:17:30.912Z,19
2022-09-16T15:20:06.439Z,16
2022-09-16T15:22:40.333Z,16
2022-09-16T15:25:13.514Z,13
2022-09-16T15:27:45.837Z,16
2022-09-16T15:30:18.166Z,17
2022-09-16T15:32:50.831Z,24
2022-09-16T15:35:25.826Z,25
2022-09-16T15:37:58.301Z,23
2022-09-16T15:40:31.495Z,24
2022-09-16T15:43:05.577Z,19
2022-09-16T15:45:38.979Z,20
2022-09-16T15:48:11.041Z,27
2022-09-16T15:50:43.262Z,20
2022-09-16T15:53:17.486Z,25
2022-09-16T15:55:50.668Z,20
2022-09-16T15:58:23.121Z,17
2022-09-16T16:00:56.923Z,35
2022-09-16T16:03:30.713Z,20
2022-09-16T16:06:03.020Z,24
2022-09-16T16:08:35.600Z,20
2022-09-16T16:11:10.313Z,20
2022-09-16T16:13:47.832Z,16
2022-09-16T16:16:19.968Z,12
2022-09-16T16:18:52.161Z,15
2022-09-16T16:21:26.324Z,13
2022-09-16T16:23:59.702Z,14
2022-09-16T16:26:32.484Z,16
2022-09-16T16:29:05.389Z,14
2022-09-16T16:31:38.381Z,15
2022-09-16T16:34:10.980Z,13
2022-09-16T16:36:43.386Z,16
2022-09-16T16:39:15.993Z,16
2022-09-16T16:41:49.054Z,18
2022-09-16T16:44:20.127Z,31
2022-09-16T16:46:52.598Z,20
2022-09-16T16:49:25.234Z,24
2022-09-16T16:51:57.925Z,15
2022-09-16T16:54:30.635Z,16
2022-09-16T16:57:03.512Z,20
2022-09-16T16:59:36.157Z,23
2022-09-16T17:02:09.631Z,18
2022-09-16T17:04:42.098Z,17
2022-09-16T17:07:28.481Z,17
2022-09-16T17:09:59.151Z,23
2022-09-16T17:12:32.385Z,23
2022-09-16T17:15:07.127Z,43
2022-09-16T17:17:40.204Z,24
2022-09-16T17:20:12.790Z,17
2022-09-16T17:22:45.477Z,19
2022-09-16T17:25:18.023Z,28
2022-09-16T17:27:51.060Z,20
2022-09-16T17:30:24.769Z,20
2022-09-16T17:32:56.455Z,24
2022-09-16T17:35:28.916Z,21
2022-09-16T17:38:07.421Z,21
2022-09-16T17:40:38.792Z,20
2022-09-16T17:43:13.086Z,17
2022-09-16T17:45:45.941Z,27
2022-09-16T17:48:31.930Z,24
2022-09-16T17:51:04.570Z,20
2022-09-16T17:53:38.666Z,16
2022-09-16T17:56:10.586Z,38
2022-09-16T17:58:43.386Z,23
2022-09-16T18:01:17.919Z,24
2022-09-16T18:03:52.779Z,19
2022-09-16T18:06:26.393Z,22
2022-09-16T18:08:58.853Z,19
2022-09-16T18:11:31.194Z,29
2022-09-16T18:14:05.001Z,32
2022-09-16T18:16:36.355Z,23
2022-09-16T18:19:09.957Z,21
2022-09-16T18:21:43.207Z,20
2022-09-16T18:24:15.667Z,25
2022-09-16T18:26:48.963Z,20
2022-09-16T18:29:22.656Z,23
2022-09-16T18:31:55.062Z,24
2022-09-16T18:34:34.122Z,24
2022-09-16T18:37:05.035Z,20
2022-09-16T18:39:39.166Z,22
2022-09-16T18:42:11.960Z,27
2022-09-16T18:44:44.956Z,23
2022-09-16T18:47:17.304Z,21
2022-09-16T18:49:51.316Z,24
2022-09-16T18:52:23.899Z,17
2022-09-16T18:55:05.592Z,16
2022-09-16T18:57:38.060Z,20
2022-09-16T19:00:10.338Z,20
2022-09-16T19:02:43.473Z,20
2022-09-16T19:05:16.922Z,27
2022-09-16T19:07:49.521Z,24
2022-09-16T19:10:22.309Z,24
2022-09-16T19:12:57.984Z,28
2022-09-16T19:15:34.335Z,20
2022-09-16T19:18:06.355Z,20
2022-09-16T19:20:39.103Z,19
2022-09-16T19:23:12.023Z,20
2022-09-16T19:25:44.457Z,26
2022-09-16T19:28:17.959Z,20
2022-09-16T19:30:52.834Z,24
2022-09-16T19:33:25.677Z,21
2022-09-16T19:36:00.681Z,20
2022-09-16T19:38:33.703Z,20
2022-09-16T19:41:05.979Z,29
2022-09-16T19:43:38.477Z,20
2022-09-16T19:46:11.414Z,24
2022-09-16T19:48:44.524Z,20
2022-09-16T19:51:18.431Z,28
2022-09-16T19:53:52.674Z,34
2022-09-16T19:56:26.182Z,16
2022-09-16T19:58:59.771Z,23
2022-09-16T20:01:33.158Z,46
2022-09-16T20:04:05.746Z,20
2022-09-16T20:06:38.394Z,19
2022-09-16T20:09:10.870Z,21
2022-09-16T20:11:44.514Z,21
2022-09-16T20:14:17.045Z,18
2022-09-16T20:16:52.240Z,23
2022-09-16T20:19:28.030Z,34
2022-09-16T20:22:01.124Z,20
2022-09-16T20:24:38.501Z,24
2022-09-16T20:27:10.747Z,28
2022-09-16T20:29:43.922Z,24
2022-09-16T20:32:16.345Z,25
2022-09-16T20:34:49.040Z,24
2022-09-16T20:37:21.245Z,30
2022-09-16T20:39:53.751Z,32
2022-09-16T20:42:26.305Z,28
2022-09-16T20:45:02.579Z,27
2022-09-16T20:47:35.201Z,24
2022-09-16T20:50:11.049Z,24
2022-09-16T20:52:42.595Z,29
2022-09-16T20:55:15.892Z,29
2022-09-16T20:57:54.871Z,27
2022-09-16T21:00:26.249Z,28
2022-09-16T21:02:59.591Z,27
2022-09-16T21:05:33.774Z,27
2022-09-16T21:08:06.059Z,25
2022-09-16T21:10:38.551Z,23
2022-09-16T21:13:14.066Z,28
2022-09-16T21:15:47.871Z,25
2022-09-16T21:18:21.930Z,30
2022-09-16T21:20:57.596Z,20
2022-09-16T21:23:30.608Z,28
2022-09-16T21:26:06.019Z,28
2022-09-16T21:28:39.170Z,38
2022-09-16T21:31:12.755Z,31
2022-09-16T21:33:48.021Z,26
2022-09-16T21:36:20.344Z,25
2022-09-16T21:38:53.185Z,24
2022-09-16T21:41:25.173Z,27
2022-09-16T21:43:57.260Z,24
2022-09-16T21:46:30.816Z,32
2022-09-16T21:49:08.181Z,26
2022-09-16T21:51:40.528Z,27
2022-09-16T21:54:27.231Z,27
2022-09-16T21:57:07.531Z,25
2022-09-16T21:59:45.855Z,23
2022-09-16T22:02:18.449Z,24
2022-09-16T22:04:51.760Z,27
2022-09-16T22:07:24.106Z,24
2022-09-16T22:09:56.518Z,29
2022-09-16T22:12:29.039Z,31
2022-09-16T22:15:10.142Z,26
2022-09-16T22:17:52.349Z,28
2022-09-16T22:20:25.196Z,28
2022-09-16T22:23:01.837Z,24
2022-09-16T22:25:34.389Z,27
2022-09-16T22:28:09.507Z,30
2022-09-16T22:30:47.254Z,27
2022-09-16T22:33:19.350Z,28
2022-09-16T22:36:00.405Z,24
2022-09-16T22:38:32.736Z,28
2022-09-16T22:41:04.557Z,22
2022-09-16T22:43:37.077Z,25
2022-09-16T22:46:10.297Z,27
2022-09-16T22:48:42.315Z,31
2022-09-16T22:51:14.837Z,28
2022-09-16T22:53:51.091Z,28
2022-09-16T22:56:23.680Z,27
2022-09-16T22:58:56.732Z,32
2022-09-16T23:01:28.813Z,24
2022-09-16T23:04:02.125Z,24
2022-09-16T23:06:35.724Z,25
2022-09-16T23:09:06.654Z,33
2022-09-16T23:11:38.928Z,32
2022-09-16T23:14:12.580Z,21
2022-09-16T23:16:43.045Z,25
2022-09-16T23:19:14.965Z,26
2022-09-16T23:21:47.598Z,24
2022-09-16T23:24:19.893Z,27
2022-09-16T23:26:52.041Z,28
2022-09-16T23:29:24.452Z,30
2022-09-16T23:31:56.249Z,26
2022-09-16T23:34:32.279Z,32
2022-09-16T23:37:06.078Z,29
2022-09-16T23:39:39.682Z,27
2022-09-16T23:42:17.332Z,31
2022-09-16T23:44:53.932Z,28
2022-09-16T23:47:28.977Z,32
2022-09-16T23:50:04.195Z,32
2022-09-16T23:52:37.761Z,29
2022-09-16T23:55:12.709Z,28
2022-09-16T23:57:45.368Z,35
